Time;durP1;ratioP1;P1;durP2;ratioP2;P2;SDS_P1;SDS_P2;PMS_P1;PMS_P2;Temp;Humidity;BMP_temperature;BMP_pressure;BME280_temperature;BME280_humidity;BME280_pressure;Samples;Min_cycle;Max_cycle;Signal;HPM_P1;HPM_P2
2024/01/16 00:01:31;;;;;;;6.32;2.00;;;-0.10;99.90;;;;;;5009693;28;20041;-71
2024/01/16 00:03:56;;;;;;;9.63;2.28;;;-0.10;99.90;;;;;;5011925;28;20096;-71
2024/01/16 00:06:22;;;;;;;9.25;1.92;;;0.00;99.90;;;;;;5006662;28;20041;-69
2024/01/16 00:08:47;;;;;;;11.02;1.70;;;0.00;99.90;;;;;;5004168;28;20572;-71
2024/01/16 00:11:13;;;;;;;10.00;1.88;;;0.10;99.90;;;;;;5010376;28;20056;-71
2024/01/16 00:13:38;;;;;;;4.55;1.48;;;0.10;99.90;;;;;;5004053;28;20077;-71
2024/01/16 00:16:04;;;;;;;10.07;1.70;;;0.10;99.90;;;;;;5005601;28;20034;-71
2024/01/16 00:18:30;;;;;;;9.30;2.45;;;0.10;99.90;;;;;;5011354;28;20038;-71
2024/01/16 00:20:56;;;;;;;8.30;2.03;;;0.20;99.90;;;;;;5011804;28;20042;-70
2024/01/16 00:23:21;;;;;;;11.80;1.65;;;0.20;99.90;;;;;;5005227;28;20034;-71
2024/01/16 00:25:47;;;;;;;7.68;1.92;;;0.30;99.90;;;;;;5000548;28;20036;-71
2024/01/16 00:28:12;;;;;;;7.50;1.83;;;0.30;99.90;;;;;;5010223;28;20107;-71
2024/01/16 00:30:38;;;;;;;7.63;2.35;;;0.30;99.90;;;;;;5004313;28;20037;-70
2024/01/16 00:33:04;;;;;;;5.90;1.70;;;0.30;99.90;;;;;;5002428;28;20053;-71
2024/01/16 00:35:29;;;;;;;6.25;1.60;;;0.40;99.90;;;;;;5009865;28;20046;-71
2024/01/16 00:37:55;;;;;;;10.43;2.17;;;0.40;99.90;;;;;;5010410;28;20037;-71
2024/01/16 00:40:20;;;;;;;4.28;1.70;;;0.40;99.90;;;;;;5000793;28;20476;-69
2024/01/16 00:42:46;;;;;;;7.22;1.80;;;0.40;99.90;;;;;;5014929;28;20046;-69
2024/01/16 00:45:11;;;;;;;9.80;2.10;;;0.40;99.90;;;;;;5014493;28;20042;-70
2024/01/16 00:47:37;;;;;;;12.60;1.80;;;0.40;99.90;;;;;;5004746;28;20493;-69
2024/01/16 00:50:03;;;;;;;7.05;1.80;;;0.40;99.90;;;;;;5008633;28;20046;-70
2024/01/16 00:52:28;;;;;;;9.45;2.25;;;0.40;99.90;;;;;;5013709;28;20049;-70
2024/01/16 00:54:54;;;;;;;9.02;2.03;;;0.30;99.90;;;;;;5015397;28;20405;-69
2024/01/16 00:57:19;;;;;;;4.47;1.60;;;0.20;99.90;;;;;;5005955;28;20042;-69
2024/01/16 00:59:48;;;;;;;4.10;1.52;;;0.20;99.90;;;;;;5007320;28;20079;-70
2024/01/16 01:02:14;;;;;;;6.57;1.38;;;0.20;99.90;;;;;;5015160;28;20045;-70
2024/01/16 01:04:41;;;;;;;8.95;1.63;;;0.20;99.90;;;;;;5002982;28;20037;-71
2024/01/16 01:07:08;;;;;;;10.48;2.20;;;0.30;99.90;;;;;;5014831;28;20033;-70
2024/01/16 01:09:33;;;;;;;3.88;1.63;;;0.20;99.90;;;;;;5015042;28;20139;-70
2024/01/16 01:11:59;;;;;;;3.85;1.50;;;0.30;99.90;;;;;;5005687;28;20500;-71
2024/01/16 01:14:26;;;;;;;4.10;1.42;;;0.30;99.90;;;;;;5011799;28;20133;-71
2024/01/16 01:16:52;;;;;;;2.42;1.25;;;0.30;99.90;;;;;;5013591;28;20064;-71
2024/01/16 01:19:18;;;;;;;13.57;1.80;;;0.20;99.90;;;;;;5014316;28;20049;-69
2024/01/16 01:21:43;;;;;;;5.80;1.38;;;0.20;99.90;;;;;;5000207;28;20121;-69
2024/01/16 01:24:09;;;;;;;6.28;1.80;;;0.20;99.90;;;;;;5010905;28;20121;-69
2024/01/16 01:26:35;;;;;;;4.80;1.85;;;0.20;99.90;;;;;;5013258;28;20061;-69
2024/01/16 01:29:01;;;;;;;4.47;1.27;;;0.10;99.90;;;;;;5001560;28;20485;-69
2024/01/16 01:31:26;;;;;;;8.18;1.60;;;0.10;99.90;;;;;;5006133;28;20063;-69
2024/01/16 01:33:52;;;;;;;6.32;1.60;;;0.10;99.90;;;;;;5012984;28;20046;-69
2024/01/16 01:36:17;;;;;;;5.57;1.50;;;0.00;99.90;;;;;;5003752;28;20053;-70
2024/01/16 01:38:43;;;;;;;4.30;1.33;;;0.00;99.90;;;;;;4995459;28;20112;-70
2024/01/16 01:41:11;;;;;;;2.75;1.25;;;0.00;99.90;;;;;;5009978;28;20549;-70
2024/01/16 01:43:37;;;;;;;4.63;1.60;;;-0.10;99.90;;;;;;5012612;28;20049;-70
2024/01/16 01:46:15;;;;;;;7.40;1.30;;;-0.10;99.90;;;;;;5004786;28;20096;-70
2024/01/16 01:48:42;;;;;;;7.82;1.60;;;-0.10;99.90;;;;;;5005032;28;20026;-69
2024/01/16 01:51:12;;;;;;;3.20;1.38;;;-0.10;99.90;;;;;;5013827;28;20073;-69
2024/01/16 01:53:39;;;;;;;3.90;1.35;;;-0.10;99.90;;;;;;5010800;28;20034;-70
2024/01/16 01:56:07;;;;;;;3.70;1.20;;;-0.20;99.90;;;;;;5011555;28;20057;-69
2024/01/16 01:58:39;;;;;;;5.47;1.50;;;-0.20;99.90;;;;;;5013025;28;20049;-69
2024/01/16 02:01:07;;;;;;;9.40;1.88;;;-0.20;99.90;;;;;;5014033;28;20038;-70
2024/01/16 02:03:39;;;;;;;10.85;1.52;;;-0.20;99.90;;;;;;5010274;28;20034;-69
2024/01/16 02:06:05;;;;;;;6.07;1.35;;;-0.10;99.90;;;;;;5011462;28;20038;-69
2024/01/16 02:08:30;;;;;;;2.35;1.08;;;-0.10;99.90;;;;;;5013526;28;20042;-70
2024/01/16 02:10:56;;;;;;;1.73;1.15;;;-0.10;99.90;;;;;;5005539;28;20073;-71
2024/01/16 02:13:23;;;;;;;4.75;1.35;;;-0.10;99.90;;;;;;5008564;28;20053;-70
2024/01/16 02:15:52;;;;;;;3.85;1.50;;;-0.10;99.90;;;;;;5013922;28;20046;-70
2024/01/16 02:18:17;;;;;;;4.88;1.48;;;-0.10;99.90;;;;;;5009691;28;20034;-70
2024/01/16 02:20:45;;;;;;;5.55;1.15;;;-0.10;99.90;;;;;;5009977;28;20522;-70
2024/01/16 02:23:14;;;;;;;6.65;1.70;;;-0.10;99.90;;;;;;5011626;28;20060;-69
2024/01/16 02:25:41;;;;;;;4.85;1.58;;;-0.20;99.90;;;;;;5030019;28;20056;-70
2024/01/16 02:28:07;;;;;;;4.50;1.30;;;-0.20;99.90;;;;;;5004014;28;20045;-71
2024/01/16 02:30:32;;;;;;;5.65;1.65;;;-0.20;99.90;;;;;;5006272;28;20038;-70
2024/01/16 02:32:58;;;;;;;6.57;1.40;;;-0.20;99.90;;;;;;5011972;28;20054;-70
2024/01/16 02:35:24;;;;;;;3.50;1.35;;;-0.30;99.90;;;;;;5002685;28;20034;-70
2024/01/16 02:37:49;;;;;;;2.95;1.27;;;-0.20;99.90;;;;;;5011755;28;20108;-69
2024/01/16 02:40:15;;;;;;;4.00;1.60;;;-0.20;99.90;;;;;;5028803;28;20073;-68
2024/01/16 02:42:40;;;;;;;5.20;1.40;;;-0.20;99.90;;;;;;5028244;28;20131;-69
2024/01/16 02:45:06;;;;;;;6.68;1.50;;;-0.20;99.90;;;;;;5005174;28;20172;-68
2024/01/16 02:47:32;;;;;;;3.72;1.27;;;-0.20;99.90;;;;;;5010842;28;20480;-69
2024/01/16 02:49:59;;;;;;;4.90;1.85;;;-0.20;99.90;;;;;;5013405;28;20045;-69
2024/01/16 02:52:25;;;;;;;4.13;1.30;;;-0.30;99.90;;;;;;5005717;28;20046;-69
2024/01/16 02:54:51;;;;;;;3.00;1.27;;;-0.20;99.90;;;;;;5007851;28;20046;-69
2024/01/16 02:57:16;;;;;;;3.60;1.50;;;-0.30;99.90;;;;;;5011890;28;20042;-70
2024/01/16 02:59:45;;;;;;;8.65;1.50;;;-0.30;99.90;;;;;;5009452;28;20089;-70
2024/01/16 03:02:11;;;;;;;3.20;1.27;;;-0.20;99.90;;;;;;5006482;28;20049;-70
2024/01/16 03:04:37;;;;;;;6.93;1.75;;;-0.20;99.90;;;;;;5012039;28;20034;-69
2024/01/16 03:07:03;;;;;;;6.35;1.55;;;-0.10;99.90;;;;;;5013009;28;20065;-70
2024/01/16 03:09:29;;;;;;;7.78;1.73;;;-0.10;99.90;;;;;;5000989;28;20561;-70
2024/01/16 03:11:54;;;;;;;6.32;1.60;;;-0.10;99.90;;;;;;5012019;28;20447;-70
2024/01/16 03:14:20;;;;;;;5.30;1.63;;;-0.10;99.90;;;;;;5012455;28;20072;-69
2024/01/16 03:16:46;;;;;;;4.15;1.38;;;0.00;99.90;;;;;;5008565;28;20554;-69
2024/01/16 03:19:12;;;;;;;11.88;2.70;;;-0.10;99.90;;;;;;5002394;28;20510;-70
2024/01/16 03:21:38;;;;;;;7.55;1.30;;;-0.10;99.90;;;;;;5011922;28;20399;-70
2024/01/16 03:24:05;;;;;;;4.03;1.40;;;-0.10;99.90;;;;;;5011241;28;20037;-70
2024/01/16 03:26:32;;;;;;;8.65;1.65;;;-0.10;99.90;;;;;;5006704;28;20042;-70
2024/01/16 03:28:57;;;;;;;7.55;1.50;;;-0.10;99.90;;;;;;5011137;28;20045;-70
2024/01/16 03:31:23;;;;;;;7.60;1.50;;;-0.10;99.90;;;;;;5012539;28;20044;-70
2024/01/16 03:33:48;;;;;;;6.13;1.70;;;-0.10;99.90;;;;;;5003683;28;20404;-70
2024/01/16 03:36:15;;;;;;;4.78;1.55;;;-0.10;99.90;;;;;;5011703;28;20528;-69
2024/01/16 03:38:42;;;;;;;4.53;1.75;;;-0.10;99.90;;;;;;5004168;28;20493;-70
2024/01/16 03:41:10;;;;;;;3.40;1.17;;;-0.10;99.90;;;;;;5012635;28;20100;-69
2024/01/16 03:43:35;;;;;;;7.05;1.63;;;-0.10;99.90;;;;;;5006235;28;20046;-69
2024/01/16 03:46:01;;;;;;;9.18;1.55;;;-0.10;99.90;;;;;;5005513;28;20056;-69
2024/01/16 03:48:27;;;;;;;4.47;1.48;;;-0.10;99.90;;;;;;5010580;28;20049;-70
2024/01/16 03:50:54;;;;;;;5.80;1.73;;;-0.10;99.90;;;;;;5003134;28;20162;-70
2024/01/16 03:53:20;;;;;;;7.03;2.08;;;-0.10;99.90;;;;;;5005201;28;20057;-70
2024/01/16 03:55:46;;;;;;;5.75;2.10;;;-0.10;99.90;;;;;;5010512;28;20045;-69
2024/01/16 03:58:11;;;;;;;8.10;1.80;;;-0.10;99.90;;;;;;5011372;28;20068;-69
2024/01/16 04:00:37;;;;;;;7.22;1.50;;;-0.10;99.90;;;;;;5005732;28;20034;-69
2024/01/16 04:03:03;;;;;;;5.20;1.75;;;-0.10;99.90;;;;;;5007570;28;20516;-69
2024/01/16 04:05:28;;;;;;;8.93;1.92;;;-0.10;99.90;;;;;;5011725;28;20042;-69
2024/01/16 04:07:54;;;;;;;4.53;1.50;;;-0.20;99.90;;;;;;5004047;28;20505;-69
2024/01/16 04:10:20;;;;;;;4.88;1.63;;;-0.20;99.90;;;;;;5002178;28;20037;-69
2024/01/16 04:12:45;;;;;;;9.90;1.95;;;-0.10;99.90;;;;;;5022515;28;20057;-69
2024/01/16 04:15:11;;;;;;;5.45;1.90;;;-0.10;99.90;;;;;;5031785;28;20041;-69
2024/01/16 04:17:37;;;;;;;8.63;1.80;;;-0.10;99.90;;;;;;5006112;28;20046;-69
2024/01/16 04:20:03;;;;;;;10.07;1.98;;;0.00;99.90;;;;;;5009836;28;20408;-69
2024/01/16 04:22:28;;;;;;;7.45;1.90;;;0.00;99.90;;;;;;5011324;28;20508;-69
2024/01/16 04:24:54;;;;;;;4.45;1.95;;;0.00;99.90;;;;;;5001968;28;20037;-68
2024/01/16 04:27:20;;;;;;;5.07;1.70;;;0.10;99.90;;;;;;5010690;28;20046;-69
2024/01/16 04:29:45;;;;;;;8.55;1.98;;;0.10;99.90;;;;;;5010807;28;20092;-68
2024/01/16 04:32:11;;;;;;;7.13;1.83;;;0.10;99.90;;;;;;5006095;28;20580;-69
2024/01/16 04:34:36;;;;;;;8.90;1.67;;;0.10;99.90;;;;;;4991194;28;20429;-70
2024/01/16 04:37:03;;;;;;;9.90;1.77;;;0.10;99.90;;;;;;5005250;28;20046;-70
2024/01/16 04:39:28;;;;;;;11.23;1.75;;;0.10;99.90;;;;;;5010341;28;20065;-69
2024/01/16 04:41:54;;;;;;;2.95;1.60;;;0.10;99.90;;;;;;5004420;28;20497;-70
2024/01/16 04:44:19;;;;;;;7.43;1.83;;;0.10;99.90;;;;;;5006807;28;20112;-70
2024/01/16 04:46:45;;;;;;;6.28;2.05;;;0.10;99.90;;;;;;5014257;28;20426;-70
2024/01/16 04:49:11;;;;;;;4.03;1.92;;;0.10;99.90;;;;;;5007413;28;20444;-69
2024/01/16 04:51:36;;;;;;;9.10;1.77;;;0.10;99.90;;;;;;5007873;28;20037;-69
2024/01/16 04:54:02;;;;;;;5.45;1.60;;;0.10;99.90;;;;;;5010179;28;20042;-70
2024/01/16 04:56:28;;;;;;;6.47;1.90;;;0.10;99.90;;;;;;5006277;28;20157;-70
2024/01/16 04:58:53;;;;;;;5.55;1.52;;;0.10;99.90;;;;;;4996175;28;20500;-70
2024/01/16 05:01:19;;;;;;;5.88;1.90;;;0.10;99.90;;;;;;5007938;28;20558;-69
2024/01/16 05:03:44;;;;;;;4.65;1.67;;;0.20;99.90;;;;;;5010885;28;20687;-69
2024/01/16 05:06:15;;;;;;;7.35;1.40;;;0.20;99.90;;;;;;5004470;28;20097;-69
2024/01/16 05:08:41;;;;;;;5.47;1.88;;;0.20;99.90;;;;;;4996865;28;20124;-69
2024/01/16 05:11:07;;;;;;;9.10;1.95;;;0.10;99.90;;;;;;5010088;28;20057;-70
2024/01/16 05:13:32;;;;;;;9.98;2.10;;;0.20;99.90;;;;;;5005987;28;21448;-70
2024/01/16 05:15:58;;;;;;;8.77;2.20;;;0.20;99.90;;;;;;4998151;28;20046;-70
2024/01/16 05:18:23;;;;;;;4.03;1.55;;;0.10;99.90;;;;;;5006955;28;20111;-70
2024/01/16 05:20:49;;;;;;;9.07;1.80;;;0.10;99.90;;;;;;5006530;28;20078;-69
2024/01/16 05:23:14;;;;;;;4.32;1.42;;;0.10;99.90;;;;;;5012618;28;20129;-71
2024/01/16 05:25:40;;;;;;;4.50;1.73;;;0.10;99.90;;;;;;5015415;28;20034;-70
2024/01/16 05:28:05;;;;;;;5.68;1.48;;;0.10;99.90;;;;;;5023782;28;20046;-70
2024/01/16 05:30:32;;;;;;;4.55;1.75;;;0.00;99.90;;;;;;5002415;28;20041;-70
2024/01/16 05:33:00;;;;;;;6.72;2.10;;;0.00;99.90;;;;;;5004675;28;20045;-71
2024/01/16 05:35:29;;;;;;;8.20;2.58;;;0.00;99.90;;;;;;5014483;28;20054;-70
2024/01/16 05:37:56;;;;;;;5.47;1.60;;;0.10;99.90;;;;;;5014712;28;20091;-70
2024/01/16 05:40:22;;;;;;;7.70;2.28;;;0.10;99.90;;;;;;5007391;28;20050;-71
2024/01/16 05:42:51;;;;;;;4.00;1.77;;;0.00;99.90;;;;;;5012141;28;20045;-70
2024/01/16 05:45:17;;;;;;;5.90;1.73;;;0.00;99.90;;;;;;5013926;28;20041;-70
2024/01/16 05:47:43;;;;;;;8.45;2.20;;;0.00;99.90;;;;;;5009753;28;20814;-69
2024/01/16 05:50:08;;;;;;;11.50;1.80;;;0.00;99.90;;;;;;5009062;28;20037;-69
2024/01/16 05:52:35;;;;;;;6.75;2.38;;;0.00;99.90;;;;;;5013870;28;20659;-69
2024/01/16 05:55:02;;;;;;;7.93;1.83;;;0.00;99.90;;;;;;5008319;28;20597;-69
2024/01/16 05:57:31;;;;;;;6.65;1.98;;;0.00;99.90;;;;;;5010346;28;20508;-69
2024/01/16 05:59:57;;;;;;;5.93;1.98;;;0.00;99.90;;;;;;5006777;28;20049;-69
2024/01/16 06:02:22;;;;;;;6.45;2.17;;;0.00;99.90;;;;;;5008706;28;20079;-69
2024/01/16 06:04:48;;;;;;;5.40;2.10;;;0.00;99.90;;;;;;5001727;28;20042;-69
2024/01/16 06:07:13;;;;;;;6.80;2.13;;;0.00;99.90;;;;;;5009883;28;20045;-69
2024/01/16 06:09:39;;;;;;;5.25;2.47;;;0.00;99.90;;;;;;5009448;28;20082;-69
2024/01/16 06:12:06;;;;;;;8.05;2.03;;;0.00;99.90;;;;;;5004891;28;20056;-70
2024/01/16 06:14:32;;;;;;;5.00;2.10;;;0.00;99.90;;;;;;5007692;28;20053;-69
2024/01/16 06:16:58;;;;;;;4.72;2.30;;;0.00;99.90;;;;;;5010907;28;20042;-69
2024/01/16 06:19:24;;;;;;;6.65;2.28;;;0.10;99.90;;;;;;5005928;28;20516;-69
2024/01/16 06:21:49;;;;;;;8.13;2.42;;;0.10;99.90;;;;;;4999042;28;20505;-69
2024/01/16 06:24:15;;;;;;;5.80;2.30;;;0.10;99.90;;;;;;5009606;28;20512;-70
2024/01/16 06:26:42;;;;;;;5.75;2.70;;;0.20;99.90;;;;;;5009551;28;20045;-69
2024/01/16 06:29:07;;;;;;;6.68;2.22;;;0.20;99.90;;;;;;5010333;28;20550;-69
2024/01/16 06:31:33;;;;;;;9.23;2.50;;;0.20;99.90;;;;;;5005451;28;20064;-69
2024/01/16 06:33:59;;;;;;;6.68;2.70;;;0.20;99.90;;;;;;5006463;28;20492;-68
2024/01/16 06:36:24;;;;;;;10.25;3.00;;;0.20;99.90;;;;;;5013220;28;20503;-68
2024/01/16 06:38:50;;;;;;;7.32;2.70;;;0.20;99.90;;;;;;5005457;28;20592;-69
2024/01/16 06:41:15;;;;;;;10.40;3.00;;;0.20;99.90;;;;;;5012635;28;20044;-69
2024/01/16 06:43:41;;;;;;;6.35;3.00;;;0.20;99.90;;;;;;5011792;28;20038;-69
2024/01/16 06:46:06;;;;;;;6.90;2.50;;;0.20;99.90;;;;;;5003842;28;20034;-70
2024/01/16 06:48:35;;;;;;;6.60;2.55;;;0.20;99.90;;;;;;5002070;28;20489;-71
2024/01/16 06:51:01;;;;;;;8.38;2.60;;;0.10;99.90;;;;;;5013019;28;20578;-70
2024/01/16 06:53:26;;;;;;;6.18;2.60;;;0.10;99.90;;;;;;5008990;28;20073;-69
2024/01/16 06:55:52;;;;;;;5.80;2.63;;;0.10;99.90;;;;;;5011870;28;20045;-68
2024/01/16 06:58:17;;;;;;;9.13;2.90;;;0.10;99.90;;;;;;5017855;28;20036;-68
2024/01/16 07:00:43;;;;;;;8.02;3.15;;;0.10;99.90;;;;;;5012990;28;20041;-68
2024/01/16 07:03:08;;;;;;;6.72;2.80;;;0.10;99.90;;;;;;5009342;28;20088;-68
2024/01/16 07:05:34;;;;;;;9.10;3.17;;;0.10;99.90;;;;;;5010943;28;20091;-69
2024/01/16 07:08:00;;;;;;;6.97;3.08;;;0.10;99.90;;;;;;5012827;28;20038;-68
2024/01/16 07:10:26;;;;;;;8.48;3.55;;;0.10;99.90;;;;;;5008161;28;20113;-69
2024/01/16 07:12:51;;;;;;;6.00;2.90;;;0.10;99.90;;;;;;5007596;28;20112;-69
2024/01/16 07:15:18;;;;;;;7.03;2.92;;;0.00;99.90;;;;;;5020813;28;20052;-69
2024/01/16 07:17:44;;;;;;;7.65;2.97;;;0.00;99.90;;;;;;5012720;28;20033;-69
2024/01/16 07:20:10;;;;;;;8.40;3.00;;;0.00;99.90;;;;;;5006087;28;20514;-70
2024/01/16 07:22:39;;;;;;;7.72;2.60;;;0.00;99.90;;;;;;5008871;28;20045;-69
2024/01/16 07:25:05;;;;;;;9.32;3.10;;;0.00;99.90;;;;;;5012309;28;20034;-70
2024/01/16 07:27:31;;;;;;;6.57;2.80;;;0.00;99.90;;;;;;5005261;28;20034;-68
2024/01/16 07:29:56;;;;;;;10.43;3.55;;;0.10;99.90;;;;;;5001599;28;20038;-69
2024/01/16 07:32:22;;;;;;;9.85;3.15;;;0.10;99.90;;;;;;5021208;28;20179;-69
2024/01/16 07:34:48;;;;;;;7.47;3.00;;;0.10;99.90;;;;;;5031967;28;20048;-70
2024/01/16 07:37:15;;;;;;;10.57;3.20;;;0.10;99.90;;;;;;5010683;28;20053;-70
2024/01/16 07:39:41;;;;;;;12.40;3.08;;;0.00;99.90;;;;;;5006876;28;20415;-68
2024/01/16 07:42:07;;;;;;;11.90;3.25;;;0.00;99.90;;;;;;5013970;28;20050;-67
2024/01/16 07:44:33;;;;;;;8.88;3.90;;;0.10;99.90;;;;;;4998826;28;20449;-69
2024/01/16 07:46:59;;;;;;;6.35;3.30;;;0.10;99.90;;;;;;5004347;28;20115;-69
2024/01/16 07:49:24;;;;;;;10.25;3.40;;;0.10;99.90;;;;;;4998751;28;20038;-69
2024/01/16 07:51:50;;;;;;;7.78;3.30;;;0.10;99.90;;;;;;5007242;28;20042;-68
2024/01/16 07:54:15;;;;;;;9.13;3.42;;;0.10;99.90;;;;;;5011593;28;20050;-68
2024/01/16 07:56:41;;;;;;;8.38;3.47;;;0.10;99.90;;;;;;5011631;28;20033;-65
2024/01/16 07:59:07;;;;;;;11.45;3.45;;;0.10;99.90;;;;;;5004313;28;20382;-68
2024/01/16 08:01:32;;;;;;;12.23;3.92;;;0.20;99.90;;;;;;5001179;28;20466;-68
2024/01/16 08:03:58;;;;;;;7.47;3.40;;;0.20;99.90;;;;;;5016965;28;20567;-68
2024/01/16 08:06:24;;;;;;;8.77;3.53;;;0.20;99.90;;;;;;5013050;28;20042;-68
2024/01/16 08:08:50;;;;;;;6.22;3.55;;;0.30;99.90;;;;;;5002944;28;20041;-67
2024/01/16 08:11:16;;;;;;;8.93;3.60;;;0.30;99.90;;;;;;5001695;28;20542;-65
2024/01/16 08:13:42;;;;;;;10.68;4.10;;;0.40;99.90;;;;;;5011388;28;20045;-69
2024/01/16 08:16:07;;;;;;;10.80;4.15;;;0.40;99.90;;;;;;5008363;28;20034;-68
2024/01/16 08:18:34;;;;;;;6.22;3.45;;;0.40;99.90;;;;;;5000980;28;20044;-66
2024/01/16 08:20:59;;;;;;;12.65;3.60;;;0.50;99.90;;;;;;5016234;28;20068;-66
2024/01/16 08:23:25;;;;;;;14.05;4.25;;;0.50;99.90;;;;;;5013411;28;20520;-67
2024/01/16 08:25:51;;;;;;;12.60;4.40;;;0.60;99.90;;;;;;5011054;28;20411;-67
2024/01/16 08:28:17;;;;;;;11.13;4.00;;;0.60;99.90;;;;;;4995126;28;20041;-67
2024/01/16 08:30:43;;;;;;;10.13;3.80;;;0.60;99.90;;;;;;5013812;28;20042;-66
2024/01/16 08:33:09;;;;;;;9.18;4.20;;;0.60;99.90;;;;;;5014301;28;20045;-66
2024/01/16 08:35:34;;;;;;;7.53;3.50;;;0.60;99.90;;;;;;4997168;28;20042;-66
2024/01/16 08:38:01;;;;;;;16.42;4.43;;;0.60;99.90;;;;;;5006290;28;20046;-68
2024/01/16 08:40:26;;;;;;;12.13;4.18;;;0.60;99.90;;;;;;5011132;28;20042;-67
2024/01/16 08:42:54;;;;;;;13.02;4.40;;;0.60;99.90;;;;;;5003913;28;20381;-68
2024/01/16 08:45:21;;;;;;;8.48;4.38;;;0.70;99.90;;;;;;5011807;28;20500;-67
2024/01/16 08:47:47;;;;;;;8.18;3.75;;;0.70;99.90;;;;;;5001767;28;20042;-67
2024/01/16 08:50:12;;;;;;;12.77;4.95;;;0.70;99.90;;;;;;5014721;28;20053;-67
2024/01/16 08:52:38;;;;;;;10.82;4.57;;;0.80;99.90;;;;;;5008988;28;20046;-67
2024/01/16 08:55:04;;;;;;;17.67;4.88;;;0.80;99.90;;;;;;5017122;28;20135;-67
2024/01/16 08:57:30;;;;;;;17.55;5.03;;;0.90;99.90;;;;;;5031414;28;20048;-67
2024/01/16 08:59:56;;;;;;;11.23;5.10;;;0.90;99.90;;;;;;5023454;28;20038;-68
2024/01/16 09:02:21;;;;;;;10.07;4.95;;;0.90;99.90;;;;;;4999997;28;20053;-67
2024/01/16 09:04:50;;;;;;;17.48;5.70;;;0.90;99.90;;;;;;5022947;28;20551;-67
2024/01/16 09:07:16;;;;;;;13.65;6.40;;;1.00;99.90;;;;;;5006867;28;20093;-69
2024/01/16 09:09:42;;;;;;;11.30;5.78;;;1.00;99.90;;;;;;5013186;28;20065;-67
2024/01/16 09:12:11;;;;;;;15.05;5.80;;;1.00;99.90;;;;;;5002265;28;20128;-67
2024/01/16 09:14:37;;;;;;;12.30;5.25;;;1.00;99.90;;;;;;5013155;28;20048;-67
2024/01/16 09:17:03;;;;;;;12.13;5.20;;;1.00;99.90;;;;;;5002128;28;20034;-67
2024/01/16 09:19:29;;;;;;;13.40;6.35;;;1.10;99.90;;;;;;4996754;28;20077;-68
2024/01/16 09:21:55;;;;;;;15.07;5.75;;;1.10;99.90;;;;;;5004045;28;20046;-68
2024/01/16 09:24:21;;;;;;;13.02;5.50;;;1.10;99.90;;;;;;5014656;28;20049;-68
2024/01/16 09:26:46;;;;;;;11.23;5.82;;;1.10;99.90;;;;;;5002398;28;20129;-67
2024/01/16 09:29:12;;;;;;;10.85;5.93;;;1.20;99.90;;;;;;5018366;28;20057;-67
2024/01/16 09:31:38;;;;;;;13.27;5.97;;;1.10;99.90;;;;;;5016091;28;20038;-67
2024/01/16 09:34:04;;;;;;;15.00;5.95;;;1.20;99.90;;;;;;5005899;28;20045;-67
2024/01/16 09:36:30;;;;;;;11.80;5.85;;;1.20;99.90;;;;;;5007355;28;20033;-67
2024/01/16 09:38:55;;;;;;;11.43;6.07;;;1.30;99.90;;;;;;5017668;28;20131;-67
2024/01/16 09:41:21;;;;;;;16.88;6.18;;;1.30;99.90;;;;;;5012833;28;20036;-68
2024/01/16 09:43:47;;;;;;;13.68;5.90;;;1.30;99.90;;;;;;5019509;28;20041;-67
2024/01/16 09:46:15;;;;;;;10.20;5.20;;;1.30;99.90;;;;;;5031348;28;20049;-68
2024/01/16 09:48:44;;;;;;;14.80;5.80;;;1.40;99.90;;;;;;5017072;28;20088;-68
2024/01/16 09:51:14;;;;;;;13.27;5.78;;;1.50;99.90;;;;;;5016580;28;20034;-68
2024/01/16 09:53:41;;;;;;;9.90;5.43;;;1.50;99.90;;;;;;5017987;28;20041;-68
2024/01/16 09:56:21;;;;;;;13.60;5.72;;;1.60;99.90;;;;;;5014139;28;20045;-68
2024/01/16 09:58:49;;;;;;;13.38;5.85;;;1.60;99.90;;;;;;5005523;28;20408;-68
2024/01/16 10:01:16;;;;;;;13.52;5.80;;;1.60;99.90;;;;;;5018620;28;20044;-68
2024/01/16 10:03:45;;;;;;;14.23;5.63;;;1.60;99.90;;;;;;5012087;28;20037;-69
2024/01/16 10:06:11;;;;;;;10.50;5.55;;;1.60;99.90;;;;;;5012831;28;20049;-68
2024/01/16 10:08:38;;;;;;;11.07;5.47;;;1.60;99.90;;;;;;4998894;28;20112;-68
2024/01/16 10:11:04;;;;;;;11.35;5.40;;;1.50;99.90;;;;;;5008387;28;20037;-68
2024/01/16 10:13:31;;;;;;;9.65;5.68;;;1.50;99.90;;;;;;5008616;28;20071;-68
2024/01/16 10:15:57;;;;;;;16.75;5.22;;;1.50;99.90;;;;;;4996536;28;20046;-68
2024/01/16 10:18:25;;;;;;;10.52;5.03;;;1.50;99.90;;;;;;5020126;28;20565;-68
2024/01/16 10:20:52;;;;;;;8.35;4.65;;;1.60;99.90;;;;;;5029399;28;20539;-68
2024/01/16 10:23:29;;;;;;;15.93;5.50;;;1.60;99.90;;;;;;5012513;28;20046;-69
2024/01/16 10:26:14;;;;;;;9.88;4.65;;;1.60;99.90;;;;;;5020249;28;20037;-70
2024/01/16 10:28:43;;;;;;;9.60;4.72;;;1.60;99.90;;;;;;5020847;28;20033;-69
2024/01/16 10:31:14;;;;;;;11.15;4.53;;;1.60;99.90;;;;;;5009654;28;20042;-70
2024/01/16 10:33:40;;;;;;;11.40;4.68;;;1.60;99.90;;;;;;5012778;28;20062;-69
2024/01/16 10:36:10;;;;;;;12.13;4.57;;;1.60;99.90;;;;;;4995826;28;20481;-69
2024/01/16 10:38:38;;;;;;;8.95;4.50;;;1.60;99.90;;;;;;5007698;28;20042;-69
2024/01/16 10:41:17;;;;;;;8.82;4.57;;;1.60;99.90;;;;;;5006180;28;20053;-69
2024/01/16 10:43:44;;;;;;;7.32;4.05;;;1.60;99.90;;;;;;5020623;28;20365;-69
2024/01/16 10:46:14;;;;;;;10.07;4.03;;;1.60;99.90;;;;;;5020403;28;20034;-68
2024/01/16 10:48:43;;;;;;;11.23;4.15;;;1.70;99.90;;;;;;5003970;28;20034;-67
2024/01/16 10:51:11;;;;;;;8.32;4.03;;;1.70;99.90;;;;;;5009260;28;20037;-67
2024/01/16 10:53:41;;;;;;;9.73;4.10;;;1.70;99.90;;;;;;5012296;28;20068;-69
2024/01/16 10:56:11;;;;;;;9.43;4.30;;;1.80;99.90;;;;;;5024581;28;20618;-68
2024/01/16 10:58:40;;;;;;;10.63;4.70;;;1.80;99.90;;;;;;5006642;28;20502;-68
2024/01/16 11:01:09;;;;;;;11.93;4.80;;;1.80;99.90;;;;;;5027830;28;20041;-68
2024/01/16 11:03:48;;;;;;;9.90;4.18;;;1.80;99.90;;;;;;5025498;28;20052;-70
2024/01/16 11:06:16;;;;;;;9.90;4.82;;;1.90;99.90;;;;;;5001334;28;20057;-70
2024/01/16 11:08:42;;;;;;;8.60;4.00;;;1.80;99.90;;;;;;5016634;28;20041;-70
2024/01/16 11:11:09;;;;;;;15.30;5.03;;;1.80;99.90;;;;;;5028521;28;20045;-69
2024/01/16 11:13:36;;;;;;;13.43;5.10;;;1.80;99.90;;;;;;5014088;28;20029;-69
2024/01/16 11:16:06;;;;;;;8.85;4.15;;;1.80;99.90;;;;;;5017474;28;20037;-68
2024/01/16 11:18:34;;;;;;;6.85;4.22;;;1.80;99.90;;;;;;5010829;28;20065;-67
2024/01/16 11:21:02;;;;;;;10.40;4.22;;;1.80;99.90;;;;;;5004587;28;20053;-68
2024/01/16 11:23:28;;;;;;;9.98;4.95;;;1.80;99.90;;;;;;5007215;28;20531;-69
2024/01/16 11:25:54;;;;;;;9.05;4.45;;;1.80;99.90;;;;;;5012599;28;20126;-68
2024/01/16 11:28:19;;;;;;;13.57;5.07;;;1.80;99.90;;;;;;5009737;28;20499;-67
2024/01/16 11:30:45;;;;;;;12.82;4.65;;;1.80;99.90;;;;;;5006117;28;20037;-70
2024/01/16 11:33:33;;;;;;;8.43;5.00;;;1.80;99.90;;;;;;5015627;28;20041;-69
2024/01/16 11:35:59;;;;;;;9.77;5.10;;;1.80;99.90;;;;;;5016617;28;20052;-68
2024/01/16 11:38:28;;;;;;;12.50;5.90;;;1.80;99.90;;;;;;5012676;28;20037;-70
2024/01/16 11:40:55;;;;;;;10.68;5.68;;;1.80;99.90;;;;;;5013602;28;20049;-68
2024/01/16 11:43:33;;;;;;;10.38;5.30;;;1.80;99.90;;;;;;5020824;28;20038;-67
2024/01/16 11:46:07;;;;;;;10.18;4.93;;;1.80;99.90;;;;;;5020554;28;20867;-71
2024/01/16 11:48:33;;;;;;;16.92;6.40;;;1.90;99.90;;;;;;5012864;28;20060;-70
2024/01/16 11:50:59;;;;;;;17.13;5.93;;;1.90;99.90;;;;;;5026795;28;20103;-70
2024/01/16 11:53:37;;;;;;;15.57;5.82;;;1.90;99.90;;;;;;5024491;28;20388;-66
2024/01/16 11:56:11;;;;;;;11.70;5.85;;;1.90;99.90;;;;;;5014190;28;20037;-69
2024/01/16 11:58:49;;;;;;;11.20;5.97;;;1.90;99.90;;;;;;5016186;28;20037;-69
2024/01/16 12:01:18;;;;;;;13.10;6.05;;;1.80;99.90;;;;;;5022731;28;20029;-69
2024/01/16 12:03:43;;;;;;;17.58;7.18;;;1.80;99.90;;;;;;5001865;28;20033;-67
2024/01/16 12:06:09;;;;;;;15.45;7.13;;;1.80;99.90;;;;;;5014916;28;20496;-67
2024/01/16 12:08:37;;;;;;;18.38;7.57;;;1.80;99.90;;;;;;5017226;28;20451;-68
2024/01/16 12:11:04;;;;;;;17.38;7.53;;;1.80;99.90;;;;;;5010188;28;20677;-66
2024/01/16 12:13:30;;;;;;;14.10;7.90;;;1.80;99.90;;;;;;5009215;28;20042;-68
2024/01/16 12:16:04;;;;;;;16.02;7.43;;;1.80;99.90;;;;;;5010440;28;20053;-69
2024/01/16 12:18:29;;;;;;;15.98;8.18;;;1.80;99.90;;;;;;5010576;28;20486;-68
2024/01/16 12:20:55;;;;;;;26.85;8.75;;;1.80;99.90;;;;;;5006296;28;20129;-68
2024/01/16 12:23:22;;;;;;;21.23;8.13;;;1.80;99.90;;;;;;5009866;28;20045;-69
2024/01/16 12:25:53;;;;;;;19.67;8.73;;;1.80;99.90;;;;;;5011681;28;20041;-69
2024/01/16 12:28:21;;;;;;;17.95;7.75;;;1.80;99.90;;;;;;5006428;28;20053;-67
2024/01/16 12:30:51;;;;;;;16.92;8.15;;;1.80;99.90;;;;;;5007710;28;20034;-68
2024/01/16 12:33:21;;;;;;;20.23;8.88;;;1.80;99.90;;;;;;5026670;28;20053;-68
2024/01/16 12:35:47;;;;;;;21.38;10.82;;;1.80;99.90;;;;;;5011717;28;20034;-68
2024/01/16 12:38:14;;;;;;;23.00;10.00;;;1.80;99.90;;;;;;5010496;28;20088;-69
2024/01/16 12:40:41;;;;;;;24.58;9.23;;;1.90;99.90;;;;;;5014131;28;20377;-69
2024/01/16 12:43:09;;;;;;;22.23;9.88;;;1.90;99.90;;;;;;5015279;28;20463;-70
2024/01/16 12:45:35;;;;;;;19.25;9.60;;;1.90;99.90;;;;;;4998326;28;20374;-68
2024/01/16 12:48:03;;;;;;;21.63;9.68;;;1.90;99.90;;;;;;5008496;28;20447;-68